Terminal Aerodrome Forecast
Issued by NWS

Home | Current Version | Previous Version | Text Only | Print | Product List | Glossary On
Versions: 1 2 3 4 5 6 7 8 9 10 11 12 13 14 15
946
FTUS44 KJAN 262321
TAFGTR
TAF
KGTR 262321Z 2700/2724 16014G24KT P6SM SCT050 BKN250
     FM270600 19011G21KT P6SM VCTS BKN015CB OVC050
     FM270900 26009KT P6SM BKN015
     FM271300 29007KT P6SM BKN008
     FM271600 29006KT P6SM FEW015 SCT250=

USA.gov is the U.S. government's official web portal to all federal, state and local government web resources and services.